• Join FlightAware (Why Join?)
  • Login
  • US Flag 
10:27AM EDT


 

Airport Tracker/Info


-or-


 

Live Flight TrackerFlight Track Log ✈ KAP5 ✈ 29-Jun-2013 ✈ KMVY - KBOS

Flight Track Log - Related Links

Times and Time Zones

All times are in EDT time to prevent confusion due to time zone crossing. See the KAP5 flight status page for this flight to view local times or setup timezone preferences in your user account.

Time Position Orientation Groundspeed Altitude Reporting Facility
EDT Latitude Longitude Course Direction KTS MPH feet Rate Location/Type
06:12PM 41.5227 -70.6655 343° North  Level Estimated
06:13PM 41.5442 -70.6741 343° North  Level Estimated
06:14PM 41.5658 -70.6828 343° North  Level Estimated
06:14PM 41.7833 -70.6000 11° North 208 239 3,900  Level KA90
06:15PM 41.5873 -70.6914 343° North  Level Estimated
06:15PM 41.8333 -70.6000 360° North 208 239 3,900  Level KA90
06:16PM 41.6089 -70.7000 343° North  Level Estimated
06:16PM 41.8833 -70.5833 14° North 208 239 3,900  Level KA90
06:17PM 41.6304 -70.7087 343° North  Level Estimated
06:17PM 41.9333 -70.6000 346° North 188 216 3,900  Level KA90
06:18PM 41.6519 -70.7173 343° North  Level Estimated
06:18PM 41.9833 -70.6500 323° Northwest 181 208 3,900  Level KA90
06:19PM 42.0333 -70.6333 14° North 200 230 3,900  Level KA90
06:20PM 42.0833 -70.6333 360° North 196 226 3,900  Level KA90
06:21PM 42.1500 -70.6333 360° North 198 228 3,900  Level KA90
06:22PM 42.2000 -70.6333 360° North 198 228 3,900  Level KA90
06:23PM 42.2500 -70.6167 14° North 200 230 3,900 -360 Level KA90
06:24PM 42.3000 -70.5833 26° Northeast 215 247 3,200 -420 Descending KA90
06:25PM 42.3667 -70.5667 10° North 194 223 3,000 -180 Descending KA90
06:26PM 42.4167 -70.5833 346° North 184 212 2,900  Descending KA90
06:27PM 42.4167 -70.6333 270° West 134 154 3,000  Climbing KA90
06:28PM 42.4167 -70.6833 270° West 141 162 3,000  Level KA90
06:29PM 42.4000 -70.7333 246° West 142 163 3,000 -60 Level KA90
06:30PM 42.4000 -70.7833 270° West 143 165 2,900 -480 Descending KA90
06:31PM 42.3833 -70.8333 246° West 151 174 2,100 -780 Descending KA90
06:32PM 42.3833 -70.9000 270° West 146 168 1,400 -720 Descending KA90
06:33PM 42.3667 -70.9500 246° West 145 167 700 -720 Descending KA90
06:35PM 42.3500 -71.0000 258° West  Level FlightAware Approximate
06:42PM 42.3630 -71.0064 258° West  Level Estimated
06:43PM 42.3630 -71.0064 258° West  Level Estimated